Time;durP1;ratioP1;P1;durP2;ratioP2;P2;SDS_P1;SDS_P2;PMS_P1;PMS_P2;Temp;Humidity;BMP_temperature;BMP_pressure;BME280_temperature;BME280_humidity;BME280_pressure;Samples;Min_cycle;Max_cycle;Signal;HPM_P1;HPM_P2
2021/03/07 00:00:22;;;;;;;15.75;6.22;;;;;;;-143.98;100.00;68091.63;5004012;28;20281;-82
2021/03/07 00:02:49;;;;;;;16.27;6.18;;;;;;;-143.98;100.00;68091.63;4976945;28;20088;-82
2021/03/07 00:05:19;;;;;;;16.25;7.47;;;;;;;-143.98;100.00;68091.63;5024681;28;20114;-82
2021/03/07 00:07:47;;;;;;;11.38;5.93;;;;;;;-143.98;100.00;68091.63;4992272;28;20039;-82
2021/03/07 00:10:16;;;;;;;15.57;6.22;;;;;;;-143.98;100.00;68091.63;4988164;28;20066;-82
2021/03/07 00:12:49;;;;;;;14.38;6.15;;;;;;;-143.98;100.00;68091.63;5011850;28;20042;-82
2021/03/07 00:15:19;;;;;;;13.43;6.90;;;;;;;-143.98;100.00;68091.63;4997047;28;20342;-82
2021/03/07 00:17:46;;;;;;;17.42;6.20;;;;;;;-143.98;100.00;68091.63;4995278;28;20082;-83
2021/03/07 00:20:15;;;;;;;15.05;6.35;;;;;;;-143.98;100.00;68091.63;4989291;28;20051;-83
2021/03/07 00:22:42;;;;;;;13.90;5.90;;;;;;;-143.98;100.00;68091.63;4994268;28;20062;-82
2021/03/07 00:25:11;;;;;;;18.77;5.95;;;;;;;-143.98;100.00;68091.63;5026842;28;20054;-82
2021/03/07 00:27:38;;;;;;;18.70;5.82;;;;;;;-143.98;100.00;68091.63;5026155;28;20225;-83
2021/03/07 00:30:10;;;;;;;19.23;5.30;;;;;;;-143.98;100.00;68091.63;5011766;28;20054;-82
2021/03/07 00:32:43;;;;;;;14.90;5.88;;;;;;;-143.98;100.00;68091.63;4986519;28;20051;-82
2021/03/07 00:35:14;;;;;;;19.48;6.38;;;;;;;-143.98;100.00;68091.63;5010394;28;20034;-82
2021/03/07 00:37:40;;;;;;;14.02;6.45;;;;;;;-143.98;100.00;68091.63;4995962;28;20078;-82
2021/03/07 00:40:08;;;;;;;11.43;6.13;;;;;;;-143.98;100.00;68091.63;4977585;28;20050;-82
2021/03/07 00:42:43;;;;;;;16.60;6.85;;;;;;;-143.98;100.00;68091.63;5009489;28;20050;-83
2021/03/07 00:45:10;;;;;;;23.65;8.02;;;;;;;-143.98;100.00;68091.63;4975843;28;20058;-83
2021/03/07 00:47:36;;;;;;;18.40;6.55;;;;;;;-143.98;100.00;68091.63;4994403;28;20050;-82
2021/03/07 00:50:27;;;;;;;12.40;6.40;;;;;;;-143.98;100.00;68091.63;4994432;28;20050;-83
2021/03/07 00:52:56;;;;;;;19.27;7.00;;;;;;;-143.98;100.00;68091.63;4992317;28;20084;-83
2021/03/07 00:55:26;;;;;;;19.02;7.05;;;;;;;-143.98;100.00;68091.63;4991712;28;20094;-83
2021/03/07 00:57:53;;;;;;;14.63;6.80;;;;;;;-143.98;100.00;68091.63;4991619;28;20141;-83
2021/03/07 01:00:29;;;;;;;17.25;6.25;;;;;;;-143.98;100.00;68091.63;4991644;28;20333;-83
2021/03/07 01:02:56;;;;;;;17.92;6.97;;;;;;;-143.98;100.00;68091.63;4997512;28;20069;-83
2021/03/07 01:05:29;;;;;;;17.70;5.70;;;;;;;-143.98;100.00;68091.63;4979529;28;20065;-83
2021/03/07 01:07:55;;;;;;;23.08;6.05;;;;;;;-143.98;100.00;68091.63;4977563;28;20137;-83
2021/03/07 01:10:36;;;;;;;19.00;6.78;;;;;;;-143.98;100.00;68091.63;5028111;28;20054;-83
2021/03/07 01:13:08;;;;;;;20.58;7.03;;;;;;;-143.98;100.00;68091.63;4996108;28;20345;-83
2021/03/07 01:15:34;;;;;;;15.80;5.97;;;;;;;-143.98;100.00;68091.63;5010980;28;20042;-83
2021/03/07 01:18:04;;;;;;;14.55;6.38;;;;;;;-143.98;100.00;68091.63;4996922;28;20050;-83
2021/03/07 01:20:32;;;;;;;18.70;6.38;;;;;;;-143.98;100.00;68091.63;4996156;28;20085;-83
2021/03/07 01:22:58;;;;;;;15.60;5.93;;;;;;;-143.98;100.00;68091.63;5012507;28;20054;-83
2021/03/07 01:25:31;;;;;;;12.63;5.95;;;;;;;-143.98;100.00;68091.63;4981079;28;20042;-83
2021/03/07 01:28:04;;;;;;;12.80;5.82;;;;;;;-143.98;100.00;68091.63;4981281;28;20051;-83
2021/03/07 01:30:32;;;;;;;14.32;5.50;;;;;;;-143.98;100.00;68091.63;4990210;28;20407;-83
2021/03/07 01:32:58;;;;;;;13.45;5.75;;;;;;;-143.98;100.00;68091.63;5008308;28;20056;-84
2021/03/07 01:35:24;;;;;;;9.50;5.35;;;;;;;-143.98;100.00;68091.63;4983040;28;20051;-84
2021/03/07 01:37:56;;;;;;;19.83;6.40;;;;;;;-143.98;100.00;68091.63;4983037;28;20060;-83
2021/03/07 01:40:27;;;;;;;13.20;5.07;;;;;;;-143.98;100.00;68091.63;5008689;28;20054;-83
2021/03/07 01:42:55;;;;;;;10.80;5.30;;;;;;;-143.98;100.00;68091.63;5010104;28;20042;-83
2021/03/07 01:45:23;;;;;;;13.65;6.20;;;;;;;-143.98;100.00;68091.63;5028231;28;20084;-84
2021/03/07 01:47:54;;;;;;;16.33;6.10;;;;;;;-143.98;100.00;68091.63;5011259;28;20050;-83
2021/03/07 01:50:25;;;;;;;15.35;5.78;;;;;;;-143.98;100.00;68091.63;4995799;28;20073;-83
2021/03/07 01:52:51;;;;;;;10.13;5.78;;;;;;;-143.98;100.00;68091.63;5028290;28;20043;-83
2021/03/07 01:55:19;;;;;;;13.88;6.38;;;;;;;-143.98;100.00;68091.63;5044180;28;20046;-83
2021/03/07 01:57:49;;;;;;;11.38;5.90;;;;;;;-143.98;100.00;68091.63;5012007;28;20039;-83
2021/03/07 02:00:19;;;;;;;8.52;4.90;;;;;;;-143.98;100.00;68091.63;5020235;28;20049;-84
2021/03/07 02:02:45;;;;;;;10.30;4.55;;;;;;;-143.98;100.00;68091.63;4995912;28;20058;-83
2021/03/07 02:05:14;;;;;;;9.15;4.38;;;;;;;-143.98;100.00;68091.63;5001321;28;20050;-83
2021/03/07 02:07:41;;;;;;;14.68;4.43;;;;;;;-143.98;100.00;68091.63;5002238;28;20050;-83
2021/03/07 02:10:10;;;;;;;10.57;4.47;;;;;;;-143.98;100.00;68091.63;4989091;28;20041;-83
2021/03/07 02:12:47;;;;;;;9.98;3.67;;;;;;;-143.98;100.00;68091.63;4994085;28;20038;-83
2021/03/07 02:15:14;;;;;;;10.15;3.58;;;;;;;-143.98;100.00;68091.63;5009426;28;20084;-83
2021/03/07 02:17:41;;;;;;;10.10;4.28;;;;;;;-143.98;100.00;68091.63;5009440;28;20070;-83
2021/03/07 02:20:09;;;;;;;8.40;3.78;;;;;;;-143.98;100.00;68091.63;5008389;28;20061;-83
2021/03/07 02:22:43;;;;;;;5.88;4.20;;;;;;;-143.98;100.00;68091.63;4989871;28;20050;-83
2021/03/07 02:25:18;;;;;;;8.02;3.40;;;;;;;-143.98;100.00;68091.63;5013289;28;20048;-83
2021/03/07 02:27:45;;;;;;;7.33;3.37;;;;;;;-143.98;100.00;68091.63;4979869;28;20058;-83
2021/03/07 02:30:13;;;;;;;7.50;3.50;;;;;;;-143.98;100.00;68091.63;4978141;28;20056;-83
2021/03/07 02:32:46;;;;;;;10.95;3.78;;;;;;;-143.98;100.00;68091.63;4979000;28;20050;-83
2021/03/07 02:35:21;;;;;;;10.25;4.20;;;;;;;-143.98;100.00;68091.63;4995850;28;20374;-83
2021/03/07 02:37:53;;;;;;;8.30;3.60;;;;;;;-143.98;100.00;68091.63;4995113;28;20119;-83
2021/03/07 02:40:22;;;;;;;9.52;4.10;;;;;;;-143.98;100.00;68091.63;4979528;28;20051;-83
2021/03/07 02:43:10;;;;;;;8.02;3.65;;;;;;;-143.98;100.00;68091.63;5005839;28;20461;-83
2021/03/07 02:45:37;;;;;;;5.90;3.47;;;;;;;-143.98;100.00;68091.63;5078464;28;20201;-83
2021/03/07 02:48:04;;;;;;;9.02;3.53;;;;;;;-143.98;100.00;68091.63;4994458;28;20050;-83
2021/03/07 02:50:34;;;;;;;11.98;3.78;;;;;;;-143.98;100.00;68091.63;4980447;28;20050;-83
2021/03/07 02:53:04;;;;;;;5.30;3.03;;;;;;;-143.98;100.00;68091.63;4980285;28;20054;-83
2021/03/07 02:55:36;;;;;;;10.75;3.75;;;;;;;-143.98;100.00;68091.63;4996479;28;20057;-83
2021/03/07 02:58:12;;;;;;;6.35;3.25;;;;;;;-143.98;100.00;68091.63;4997032;28;20058;-83
2021/03/07 03:00:49;;;;;;;11.60;3.78;;;;;;;-143.98;100.00;68091.63;4996062;28;20072;-83
2021/03/07 03:03:23;;;;;;;6.32;3.50;;;;;;;-143.98;100.00;68091.63;4965117;28;20327;-83
2021/03/07 03:05:49;;;;;;;15.85;4.43;;;;;;;-143.98;100.00;68091.63;4973254;28;20062;-83
2021/03/07 03:08:17;;;;;;;9.52;3.63;;;;;;;-143.98;100.00;68091.63;4971741;28;20059;-83
2021/03/07 03:10:45;;;;;;;6.75;3.88;;;;;;;-143.98;100.00;68091.63;4972365;28;20055;-83
2021/03/07 03:13:27;;;;;;;8.27;4.00;;;;;;;-143.98;100.00;68091.63;4956431;28;20069;-83
2021/03/07 03:15:57;;;;;;;7.32;3.50;;;;;;;-143.98;100.00;68091.63;5000324;28;20051;-83
2021/03/07 03:18:29;;;;;;;11.98;3.38;;;;;;;-143.98;100.00;68091.63;4973495;28;20039;-83
2021/03/07 03:21:03;;;;;;;8.57;3.53;;;;;;;-143.98;100.00;68091.63;4984529;28;20047;-82
2021/03/07 03:23:30;;;;;;;7.55;3.92;;;;;;;-143.98;100.00;68091.63;4980822;28;20161;-82
2021/03/07 03:26:02;;;;;;;6.35;3.80;;;;;;;-143.98;100.00;68091.63;4991932;28;20051;-82
2021/03/07 03:28:32;;;;;;;6.05;3.78;;;;;;;-143.98;100.00;68091.63;4957153;28;20111;-81
2021/03/07 03:31:05;;;;;;;8.73;3.47;;;;;;;-143.98;100.00;68091.63;4973262;28;20051;-82
2021/03/07 03:33:31;;;;;;;6.28;4.32;;;;;;;-143.98;100.00;68091.63;4959013;28;20067;-82
2021/03/07 03:35:58;;;;;;;6.70;4.20;;;;;;;-143.98;100.00;68091.63;4990849;28;20051;-82
2021/03/07 03:38:54;;;;;;;10.60;4.30;;;;;;;-143.98;100.00;68091.63;4990107;28;20051;-82
2021/03/07 03:41:23;;;;;;;6.00;4.00;;;;;;;-143.98;100.00;68091.63;4963904;28;20393;-82
2021/03/07 03:43:55;;;;;;;7.72;4.43;;;;;;;-143.98;100.00;68091.63;4972281;28;20052;-81
2021/03/07 03:46:23;;;;;;;8.45;3.97;;;;;;;-143.98;100.00;68091.63;4940194;28;20129;-82
2021/03/07 03:48:58;;;;;;;12.07;4.43;;;;;;;-143.98;100.00;68091.63;4988607;28;20075;-81
2021/03/07 03:51:25;;;;;;;7.32;4.07;;;;;;;-143.98;100.00;68091.63;4939711;29;20257;-83
2021/03/07 03:53:52;;;;;;;11.27;4.60;;;;;;;-143.98;100.00;68091.63;4971592;28;20328;-83
2021/03/07 03:56:20;;;;;;;7.25;4.05;;;;;;;-143.98;100.00;68091.63;4971538;28;20070;-83
2021/03/07 03:58:54;;;;;;;5.38;3.67;;;;;;;-143.98;100.00;68091.63;4970554;28;20113;-83
2021/03/07 04:01:22;;;;;;;11.27;4.22;;;;;;;-143.98;100.00;68091.63;4960724;28;20434;-83
2021/03/07 04:03:55;;;;;;;10.63;4.40;;;;;;;-143.98;100.00;68091.63;4992812;28;20158;-83
2021/03/07 04:06:29;;;;;;;7.07;4.30;;;;;;;-143.98;100.00;68091.63;4992859;28;20057;-83
2021/03/07 04:08:55;;;;;;;7.90;3.80;;;;;;;-143.98;100.00;68091.63;4977846;28;20054;-83
2021/03/07 04:11:22;;;;;;;8.05;4.25;;;;;;;-143.98;100.00;68091.63;4994649;28;20073;-83
2021/03/07 04:13:50;;;;;;;7.07;4.05;;;;;;;-143.98;100.00;68091.63;4977444;28;20057;-82
2021/03/07 04:16:16;;;;;;;6.68;3.70;;;;;;;-143.98;100.00;68091.63;4979193;28;20096;-82
2021/03/07 04:18:47;;;;;;;11.68;4.35;;;;;;;-143.98;100.00;68091.63;4979173;28;20080;-82
2021/03/07 04:21:17;;;;;;;8.35;3.78;;;;;;;-143.98;100.00;68091.63;4994140;28;20054;-83
2021/03/07 04:23:49;;;;;;;5.22;3.28;;;;;;;-143.98;100.00;68091.63;4994620;28;20042;-83
2021/03/07 04:26:15;;;;;;;7.40;3.20;;;;;;;-143.98;100.00;68091.63;4978600;28;21011;-83
2021/03/07 04:28:43;;;;;;;12.73;4.05;;;;;;;-143.98;100.00;68091.63;4994136;28;20046;-82
2021/03/07 04:31:15;;;;;;;6.70;3.35;;;;;;;-143.98;100.00;68091.63;4978380;28;20050;-83
2021/03/07 04:33:42;;;;;;;4.85;3.60;;;;;;;-143.98;100.00;68091.63;4977955;28;20054;-83
2021/03/07 04:36:11;;;;;;;10.75;3.30;;;;;;;-143.98;100.00;68091.63;4996141;28;20051;-82
2021/03/07 04:38:38;;;;;;;7.55;3.20;;;;;;;-143.98;100.00;68091.63;4981908;28;20096;-83
2021/03/07 04:41:04;;;;;;;6.05;3.33;;;;;;;-143.98;100.00;68091.63;4998045;28;20050;-82
2021/03/07 04:43:56;;;;;;;8.38;3.22;;;;;;;-143.98;100.00;68091.63;4998874;28;20107;-83
2021/03/07 04:46:26;;;;;;;8.68;3.28;;;;;;;-143.98;100.00;68091.63;4980162;28;20565;-83
2021/03/07 04:48:57;;;;;;;5.72;3.42;;;;;;;-143.98;100.00;68091.63;4996507;28;20062;-83
2021/03/07 04:51:24;;;;;;;3.92;3.05;;;;;;;-143.98;100.00;68091.63;4995907;28;20121;-83
2021/03/07 04:53:51;;;;;;;6.25;3.38;;;;;;;-143.98;100.00;68091.63;4996581;28;20243;-83
2021/03/07 04:56:27;;;;;;;8.48;3.33;;;;;;;-143.98;100.00;68091.63;4986896;28;20127;-83
2021/03/07 04:58:55;;;;;;;3.97;3.10;;;;;;;-143.98;100.00;68091.63;5010316;28;20038;-83
2021/03/07 05:01:22;;;;;;;7.18;3.45;;;;;;;-143.98;100.00;68091.63;4991595;28;20088;-83
2021/03/07 05:03:48;;;;;;;9.82;4.13;;;;;;;-143.98;100.00;68091.63;5018450;28;20050;-83
2021/03/07 05:06:20;;;;;;;5.88;3.47;;;;;;;-143.98;100.00;68091.63;4997768;28;20065;-83
2021/03/07 05:08:46;;;;;;;8.48;3.58;;;;;;;-143.98;100.00;68091.63;5001174;28;20134;-83
2021/03/07 05:11:15;;;;;;;8.05;3.55;;;;;;;-143.98;100.00;68091.63;5007436;28;20086;-83
2021/03/07 05:13:43;;;;;;;7.03;3.20;;;;;;;-143.98;100.00;68091.63;4990760;28;20054;-83
2021/03/07 05:16:09;;;;;;;8.20;3.50;;;;;;;-143.98;100.00;68091.63;5007760;28;20046;-84
2021/03/07 05:18:36;;;;;;;6.22;3.90;;;;;;;-143.98;100.00;68091.63;5006464;28;20088;-83
2021/03/07 05:21:02;;;;;;;10.90;3.95;;;;;;;-143.98;100.00;68091.63;5003180;28;20069;-83
2021/03/07 05:23:32;;;;;;;9.77;3.40;;;;;;;-143.98;100.00;68091.63;4982032;28;20058;-83
2021/03/07 05:25:58;;;;;;;5.85;3.85;;;;;;;-143.98;100.00;68091.63;5012807;28;20495;-83
2021/03/07 05:28:24;;;;;;;6.10;3.88;;;;;;;-143.98;100.00;68091.63;4981514;28;20112;-83
2021/03/07 05:30:50;;;;;;;7.40;3.53;;;;;;;-143.98;100.00;68091.63;4997899;28;20047;-83
2021/03/07 05:33:17;;;;;;;9.23;3.90;;;;;;;-143.98;100.00;68091.63;5013183;28;20062;-83
2021/03/07 05:35:44;;;;;;;7.35;3.30;;;;;;;-143.98;100.00;68091.63;5003193;28;20089;-83
2021/03/07 05:38:11;;;;;;;10.05;3.53;;;;;;;-143.98;100.00;68091.63;5012986;28;20062;-83
2021/03/07 05:40:37;;;;;;;9.70;3.88;;;;;;;-143.98;100.00;68091.63;4997404;28;20106;-83
2021/03/07 05:43:08;;;;;;;11.00;3.55;;;;;;;-143.98;100.00;68091.63;4994026;28;20158;-83
2021/03/07 05:45:34;;;;;;;6.00;3.75;;;;;;;-143.98;100.00;68091.63;5034412;28;20057;-83
2021/03/07 05:48:01;;;;;;;6.75;3.65;;;;;;;-143.98;100.00;68091.63;5002028;28;20042;-84
2021/03/07 05:50:30;;;;;;;8.85;3.22;;;;;;;-143.98;100.00;68091.63;4997932;28;20119;-83
2021/03/07 05:52:57;;;;;;;9.63;4.00;;;;;;;-143.98;100.00;68091.63;4997388;28;20046;-83
2021/03/07 05:55:27;;;;;;;6.53;3.50;;;;;;;-143.98;100.00;68091.63;4996383;28;20046;-83
2021/03/07 05:57:57;;;;;;;6.32;3.65;;;;;;;-143.98;100.00;68091.63;5012629;28;20245;-83
2021/03/07 06:00:24;;;;;;;7.40;3.42;;;;;;;-143.98;100.00;68091.63;5013328;28;20086;-83
2021/03/07 06:02:55;;;;;;;6.60;3.80;;;;;;;-143.98;100.00;68091.63;4995737;28;20145;-83
2021/03/07 06:05:22;;;;;;;8.48;3.47;;;;;;;-143.98;100.00;68091.63;4979668;28;20054;-83
2021/03/07 06:07:52;;;;;;;5.60;3.15;;;;;;;-143.98;100.00;68091.63;4994651;28;20050;-82
2021/03/07 06:10:26;;;;;;;7.75;3.85;;;;;;;-143.98;100.00;68091.63;4996246;28;20058;-82
2021/03/07 06:13:04;;;;;;;6.55;3.25;;;;;;;-143.98;100.00;68091.63;4994919;28;20051;-82
2021/03/07 06:16:06;;;;;;;5.78;2.95;;;;;;;-143.98;100.00;68091.63;4982990;28;20046;-83
2021/03/07 06:18:43;;;;;;;5.20;3.78;;;;;;;-143.98;100.00;68091.63;4989513;28;20073;-82
2021/03/07 06:21:34;;;;;;;6.15;3.03;;;;;;;-143.98;100.00;68091.63;5005635;28;20042;-83
2021/03/07 06:24:01;;;;;;;6.75;3.13;;;;;;;-143.98;100.00;68091.63;5009409;28;20046;-83
2021/03/07 06:26:28;;;;;;;5.70;3.60;;;;;;;-143.98;100.00;68091.63;4996028;28;20042;-82
2021/03/07 06:29:12;;;;;;;9.10;3.40;;;;;;;-143.98;100.00;68091.63;5009623;28;20159;-82
2021/03/07 06:31:40;;;;;;;5.72;3.33;;;;;;;-143.98;100.00;68091.63;4995904;28;20046;-81
2021/03/07 06:34:10;;;;;;;5.32;3.22;;;;;;;-143.98;100.00;68091.63;4977008;28;20346;-82
2021/03/07 06:36:37;;;;;;;7.30;3.55;;;;;;;-143.98;100.00;68091.63;4978885;28;20074;-82
2021/03/07 06:39:06;;;;;;;11.55;3.78;;;;;;;-143.98;100.00;68091.63;4993273;28;20051;-82
2021/03/07 06:41:33;;;;;;;4.90;3.65;;;;;;;-143.98;100.00;68091.63;4976765;28;20050;-82
2021/03/07 06:44:14;;;;;;;7.30;3.83;;;;;;;-143.98;100.00;68091.63;4977157;28;20408;-82
2021/03/07 06:46:45;;;;;;;6.90;3.85;;;;;;;-143.98;100.00;68091.63;4977471;28;20061;-82
2021/03/07 06:49:27;;;;;;;5.88;3.33;;;;;;;-143.98;100.00;68091.63;5010844;28;20057;-81
2021/03/07 06:52:00;;;;;;;7.93;3.40;;;;;;;-143.98;100.00;68091.63;5009066;28;20220;-82
2021/03/07 06:54:28;;;;;;;9.30;3.45;;;;;;;-143.98;100.00;68091.63;5010005;28;20042;-82
2021/03/07 06:57:01;;;;;;;7.82;4.00;;;;;;;-143.98;100.00;68091.63;5030836;28;20046;-83
2021/03/07 06:59:29;;;;;;;7.20;4.03;;;;;;;-143.98;100.00;68091.63;4997421;28;20061;-82
2021/03/07 07:01:56;;;;;;;6.00;3.78;;;;;;;-143.98;100.00;68091.63;4996815;28;20069;-82
2021/03/07 07:04:25;;;;;;;5.70;3.35;;;;;;;-143.98;100.00;68091.63;4993770;28;20048;-82
2021/03/07 07:07:14;;;;;;;6.75;3.63;;;;;;;-143.98;100.00;68091.63;5005391;28;20054;-83
2021/03/07 07:09:40;;;;;;;5.20;3.40;;;;;;;-143.98;100.00;68091.63;4994489;28;20489;-82
2021/03/07 07:12:18;;;;;;;10.02;4.07;;;;;;;-143.98;100.00;68091.63;4992635;28;20055;-83
2021/03/07 07:14:48;;;;;;;7.53;3.50;;;;;;;-143.98;100.00;68091.63;4974562;28;20527;-82
2021/03/07 07:17:18;;;;;;;5.70;3.17;;;;;;;-143.98;100.00;68091.63;4975671;28;20081;-82
2021/03/07 07:19:54;;;;;;;13.20;3.83;;;;;;;-143.98;100.00;68091.63;4991632;28;20186;-82
2021/03/07 07:22:23;;;;;;;5.50;3.25;;;;;;;-143.98;100.00;68091.63;4994094;28;20284;-82
2021/03/07 07:24:49;;;;;;;8.32;3.75;;;;;;;-143.98;100.00;68091.63;4992948;28;20169;-82
2021/03/07 07:27:16;;;;;;;10.55;3.75;;;;;;;-143.98;100.00;68091.63;5010898;28;20046;-83
2021/03/07 07:29:42;;;;;;;6.75;3.30;;;;;;;-143.98;100.00;68091.63;4977340;28;20371;-83
2021/03/07 07:32:10;;;;;;;6.35;4.05;;;;;;;-143.98;100.00;68091.63;5008530;28;20057;-82
2021/03/07 07:34:43;;;;;;;12.10;3.53;;;;;;;-143.98;100.00;68091.63;4993082;28;20081;-83
2021/03/07 07:37:25;;;;;;;11.90;3.90;;;;;;;-143.98;100.00;68091.63;4993519;28;20087;-82
2021/03/07 07:39:53;;;;;;;12.43;4.05;;;;;;;-143.98;100.00;68091.63;5008422;28;20056;-82
2021/03/07 07:42:33;;;;;;;9.50;3.80;;;;;;;-143.98;100.00;68091.63;4976999;28;20088;-82
2021/03/07 07:45:19;;;;;;;6.13;4.00;;;;;;;-143.98;100.00;68091.63;4993275;28;20169;-83
2021/03/07 07:47:50;;;;;;;11.07;4.20;;;;;;;-143.98;100.00;68091.63;4993107;28;20097;-82
2021/03/07 07:50:31;;;;;;;7.78;4.13;;;;;;;-143.98;100.00;68091.63;4975334;28;20054;-82
2021/03/07 07:52:59;;;;;;;8.55;3.70;;;;;;;-143.98;100.00;68091.63;5008789;28;20054;-82
2021/03/07 07:55:49;;;;;;;18.90;4.20;;;;;;;-143.98;100.00;68091.63;4991741;28;20054;-82
2021/03/07 07:58:35;;;;;;;10.75;4.18;;;;;;;-143.98;100.00;68091.63;4991079;28;20069;-82
2021/03/07 08:01:07;;;;;;;8.88;4.50;;;;;;;-143.98;100.00;68091.63;4989721;28;20050;-82
2021/03/07 08:03:43;;;;;;;6.45;3.42;;;;;;;-143.98;100.00;68091.63;4993010;28;20494;-82
2021/03/07 08:06:24;;;;;;;12.33;4.17;;;;;;;-143.98;100.00;68091.63;5007558;28;20066;-83
2021/03/07 08:08:53;;;;;;;6.70;3.60;;;;;;;-143.98;100.00;68091.63;5002805;28;20058;-83
2021/03/07 08:11:19;;;;;;;7.05;4.28;;;;;;;-143.98;100.00;68091.63;4998386;28;20054;-82
2021/03/07 08:13:53;;;;;;;6.22;3.90;;;;;;;-143.98;100.00;68091.63;5002596;28;20112;-82
2021/03/07 08:16:42;;;;;;;8.15;3.47;;;;;;;-143.98;100.00;68091.63;4997864;28;20058;-82
2021/03/07 08:19:10;;;;;;;;;;;;;;;-143.98;100.00;68091.63;5003192;28;20057;-83
2021/03/07 08:21:59;;;;;;;6.15;3.90;;;;;;;-143.98;100.00;68091.63;5017217;28;19921;-82
2021/03/07 08:24:54;;;;;;;7.80;4.07;;;;;;;-143.98;100.00;68091.63;4977090;28;20058;-82
2021/03/07 08:27:32;;;;;;;12.95;5.35;;;;;;;-143.98;100.00;68091.63;4991839;28;20046;-83
2021/03/07 08:29:59;;;;;;;6.30;4.15;;;;;;;-143.98;100.00;68091.63;4973069;28;20072;-83
2021/03/07 08:32:29;;;;;;;6.72;3.90;;;;;;;-143.98;100.00;68091.63;4989234;28;20062;-84
2021/03/07 08:35:01;;;;;;;8.63;4.28;;;;;;;-143.98;100.00;68091.63;4990421;28;20058;-81
2021/03/07 08:37:30;;;;;;;5.82;4.15;;;;;;;-143.98;100.00;68091.63;5015833;28;20054;-81
2021/03/07 08:40:29;;;;;;;12.00;4.68;;;;;;;-143.98;100.00;68091.63;4991747;28;20046;-83
2021/03/07 08:43:25;;;;;;;7.80;4.30;;;;;;;-143.98;100.00;68091.63;5005690;28;20038;-82
2021/03/07 08:46:11;;;;;;;13.00;4.63;;;;;;;-143.98;100.00;68091.63;5001988;28;20057;-82
2021/03/07 08:48:41;;;;;;;9.32;4.45;;;;;;;-143.98;100.00;68091.63;5019610;28;20330;-82
2021/03/07 08:51:16;;;;;;;8.60;5.07;;;;;;;-143.98;100.00;68091.63;4988859;28;20436;-83
2021/03/07 08:53:45;;;;;;;10.15;5.07;;;;;;;-143.98;100.00;68091.63;5020760;28;20050;-83
2021/03/07 08:56:14;;;;;;;8.60;4.18;;;;;;;-143.98;100.00;68091.63;4973649;28;20078;-82
2021/03/07 08:58:46;;;;;;;12.10;4.00;;;;;;;-143.98;100.00;68091.63;4989007;28;20202;-82
2021/03/07 09:01:13;;;;;;;9.52;4.15;;;;;;;-143.98;100.00;68091.63;5003871;28;20050;-81
2021/03/07 09:03:40;;;;;;;7.63;3.88;;;;;;;-143.98;100.00;68091.63;4990457;28;20442;-83
2021/03/07 09:06:11;;;;;;;9.13;4.22;;;;;;;-143.98;100.00;68091.63;4992342;28;20146;-82
2021/03/07 09:08:38;;;;;;;8.07;4.35;;;;;;;-143.98;100.00;68091.63;4987994;28;20046;-83
2021/03/07 09:11:09;;;;;;;6.95;4.13;;;;;;;-143.98;100.00;68091.63;4988609;28;20042;-83
2021/03/07 09:13:49;;;;;;;6.57;4.57;;;;;;;-143.98;100.00;68091.63;4975846;28;20046;-83
2021/03/07 09:16:16;;;;;;;7.90;4.50;;;;;;;-143.98;100.00;68091.63;5014896;28;20062;-83
2021/03/07 09:18:43;;;;;;;9.82;4.47;;;;;;;-143.98;100.00;68091.63;5018064;28;20043;-81
2021/03/07 09:21:18;;;;;;;6.47;4.80;;;;;;;-143.98;100.00;68091.63;4989959;28;20138;-81
2021/03/07 09:23:50;;;;;;;10.30;4.80;;;;;;;-143.98;100.00;68091.63;4978519;28;20414;-83
2021/03/07 09:26:20;;;;;;;9.95;5.10;;;;;;;-143.98;100.00;68091.63;4975371;28;20285;-81
2021/03/07 09:28:47;;;;;;;7.00;4.75;;;;;;;-143.98;100.00;68091.63;4976777;28;20380;-82
2021/03/07 09:31:30;;;;;;;8.25;4.85;;;;;;;-143.98;100.00;68091.63;4993773;28;20103;-82
2021/03/07 09:34:05;;;;;;;8.35;4.97;;;;;;;-143.98;100.00;68091.63;4994021;28;20042;-82
2021/03/07 09:36:39;;;;;;;14.40;5.80;;;;;;;-143.98;100.00;68091.63;4990550;28;20083;-81
2021/03/07 09:39:11;;;;;;;9.27;5.13;;;;;;;-143.98;100.00;68091.63;5010983;28;20108;-83
2021/03/07 09:41:39;;;;;;;8.68;5.20;;;;;;;-143.98;100.00;68091.63;4977915;28;20215;-83
2021/03/07 09:44:24;;;;;;;8.68;4.88;;;;;;;-143.98;100.00;68091.63;4996430;28;20050;-83
2021/03/07 09:46:54;;;;;;;10.35;5.65;;;;;;;-143.98;100.00;68091.63;4981607;28;20112;-84
2021/03/07 09:49:28;;;;;;;11.57;5.97;;;;;;;-143.98;100.00;68091.63;4982411;28;20058;-83
2021/03/07 09:51:55;;;;;;;12.60;6.18;;;;;;;-143.98;100.00;68091.63;5009380;28;20386;-83
2021/03/07 09:54:28;;;;;;;8.00;5.80;;;;;;;-143.98;100.00;68091.63;4980546;28;20070;-83
2021/03/07 09:56:55;;;;;;;8.50;5.63;;;;;;;-143.98;100.00;68091.63;4986176;28;20108;-83
2021/03/07 09:59:30;;;;;;;14.65;6.63;;;;;;;-143.98;100.00;68091.63;4995213;28;20046;-82
2021/03/07 10:02:00;;;;;;;14.02;6.43;;;;;;;-143.98;100.00;68091.63;4992143;28;20054;-82
2021/03/07 10:04:45;;;;;;;10.32;5.32;;;;;;;-143.98;100.00;68091.63;5007582;28;20050;-82
2021/03/07 10:07:25;;;;;;;8.27;5.20;;;;;;;-143.98;100.00;68091.63;5023739;28;20062;-82
2021/03/07 10:09:59;;;;;;;10.90;5.97;;;;;;;-143.98;100.00;68091.63;4993390;28;20058;-82
2021/03/07 10:12:40;;;;;;;14.02;6.60;;;;;;;-143.98;100.00;68091.63;5019511;28;20061;-81
2021/03/07 10:15:19;;;;;;;13.57;5.97;;;;;;;-143.98;100.00;68091.63;5011620;28;20053;-81
2021/03/07 10:17:45;;;;;;;12.68;5.57;;;;;;;-143.98;100.00;68091.63;5036991;28;20072;-81
2021/03/07 10:20:16;;;;;;;8.95;5.85;;;;;;;-143.98;100.00;68091.63;5025543;28;20039;-81
2021/03/07 10:22:44;;;;;;;8.70;5.20;;;;;;;-143.98;100.00;68091.63;5007332;28;20050;-81
2021/03/07 10:25:41;;;;;;;11.65;5.97;;;;;;;-143.98;100.00;68091.63;4981520;28;20057;-81
2021/03/07 10:28:36;;;;;;;9.15;5.68;;;;;;;-143.98;100.00;68091.63;4986250;28;20126;-81
2021/03/07 10:31:08;;;;;;;10.38;6.10;;;;;;;-143.98;100.00;68091.63;5015572;28;20047;-82
2021/03/07 10:33:39;;;;;;;14.45;5.57;;;;;;;-143.98;100.00;68091.63;4986664;28;20043;-82
2021/03/07 10:36:20;;;;;;;13.77;5.88;;;;;;;-143.98;100.00;68091.63;4990814;28;20047;-81
2021/03/07 10:38:51;;;;;;;12.38;5.65;;;;;;;-143.98;100.00;68091.63;4988552;28;20051;-82
2021/03/07 10:41:31;;;;;;;9.60;5.85;;;;;;;-143.98;100.00;68091.63;4987517;28;20104;-81
2021/03/07 10:44:03;;;;;;;11.98;5.43;;;;;;;-143.98;100.00;68091.63;4972318;28;20255;-81
2021/03/07 10:46:41;;;;;;;9.57;5.45;;;;;;;-143.98;100.00;68091.63;4989016;28;20143;-81
2021/03/07 10:49:24;;;;;;;10.52;6.00;;;;;;;-143.98;100.00;68091.63;5004199;28;20077;-82
2021/03/07 10:51:50;;;;;;;8.48;5.60;;;;;;;-143.98;100.00;68091.63;5007180;28;20057;-81
2021/03/07 10:54:17;;;;;;;8.52;5.70;;;;;;;-143.98;100.00;68091.63;4979184;28;20547;-82
2021/03/07 10:56:43;;;;;;;10.70;5.78;;;;;;;-143.98;100.00;68091.63;4976530;28;20066;-82
2021/03/07 10:59:16;;;;;;;8.73;6.38;;;;;;;-143.98;100.00;68091.63;5059554;28;20462;-82
2021/03/07 11:01:53;;;;;;;10.10;5.78;;;;;;;-143.98;100.00;68091.63;5055196;28;20054;-81
2021/03/07 11:04:22;;;;;;;10.30;6.10;;;;;;;-143.98;100.00;68091.63;5001980;28;20076;-81
2021/03/07 11:06:48;;;;;;;15.40;6.47;;;;;;;-143.98;100.00;68091.63;5005123;28;20065;-81
2021/03/07 11:09:18;;;;;;;16.55;6.28;;;;;;;-143.98;100.00;68091.63;5004317;28;20108;-81
2021/03/07 11:11:44;;;;;;;13.63;7.25;;;;;;;-143.98;100.00;68091.63;4985815;28;20197;-81
2021/03/07 11:14:16;;;;;;;11.77;6.35;;;;;;;-143.98;100.00;68091.63;5017391;28;20077;-81
2021/03/07 11:16:46;;;;;;;12.30;6.10;;;;;;;-143.98;100.00;68091.63;5019770;28;20050;-80
2021/03/07 11:19:19;;;;;;;9.07;6.03;;;;;;;-143.98;100.00;68091.63;5046842;28;20036;-81
2021/03/07 11:21:49;;;;;;;9.70;5.90;;;;;;;-143.98;100.00;68091.63;5108913;28;20100;-81
2021/03/07 11:24:15;;;;;;;13.98;6.63;;;;;;;-143.98;100.00;68091.63;5071203;28;20094;-81
2021/03/07 11:26:41;;;;;;;13.98;6.90;;;;;;;-143.98;100.00;68091.63;5007014;28;20042;-81